sensor_id;sensor_type;location;lat;lon;timestamp;P1;durP1;ratioP1;P2;durP2;ratioP2
26201;SDS011;13944;28.562;77.188;2023-04-06T00:02:05;59.77;;;22.30;;
26201;SDS011;13944;28.562;77.188;2023-04-06T00:04:32;56.50;;;21.53;;
26201;SDS011;13944;28.562;77.188;2023-04-06T00:06:58;63.10;;;22.10;;
26201;SDS011;13944;28.562;77.188;2023-04-06T00:09:25;59.50;;;22.73;;
26201;SDS011;13944;28.562;77.188;2023-04-06T00:11:51;66.03;;;23.80;;
26201;SDS011;13944;28.562;77.188;2023-04-06T00:14:18;69.80;;;24.77;;
26201;SDS011;13944;28.562;77.188;2023-04-06T00:16:45;230.97;;;37.80;;
26201;SDS011;13944;28.562;77.188;2023-04-06T00:19:11;89.50;;;25.60;;
26201;SDS011;13944;28.562;77.188;2023-04-06T00:21:38;64.37;;;22.60;;
26201;SDS011;13944;28.562;77.188;2023-04-06T00:24:05;66.37;;;22.17;;
26201;SDS011;13944;28.562;77.188;2023-04-06T00:26:31;58.30;;;22.20;;
26201;SDS011;13944;28.562;77.188;2023-04-06T00:28:58;62.08;;;20.80;;
26201;SDS011;13944;28.562;77.188;2023-04-06T00:31:24;64.90;;;21.60;;
26201;SDS011;13944;28.562;77.188;2023-04-06T00:33:51;55.47;;;21.15;;
26201;SDS011;13944;28.562;77.188;2023-04-06T00:36:17;60.70;;;21.97;;
26201;SDS011;13944;28.562;77.188;2023-04-06T00:38:44;58.50;;;22.90;;
26201;SDS011;13944;28.562;77.188;2023-04-06T00:41:11;61.00;;;22.77;;
26201;SDS011;13944;28.562;77.188;2023-04-06T00:43:37;75.87;;;25.50;;
26201;SDS011;13944;28.562;77.188;2023-04-06T00:46:04;67.90;;;24.00;;
26201;SDS011;13944;28.562;77.188;2023-04-06T00:48:31;64.60;;;23.27;;
26201;SDS011;13944;28.562;77.188;2023-04-06T00:50:58;50.65;;;23.33;;
26201;SDS011;13944;28.562;77.188;2023-04-06T00:53:24;67.33;;;25.17;;
26201;SDS011;13944;28.562;77.188;2023-04-06T00:55:51;56.55;;;23.20;;
26201;SDS011;13944;28.562;77.188;2023-04-06T00:58:17;59.37;;;24.33;;
26201;SDS011;13944;28.562;77.188;2023-04-06T01:00:44;58.60;;;25.53;;
26201;SDS011;13944;28.562;77.188;2023-04-06T01:03:11;62.13;;;27.37;;
26201;SDS011;13944;28.562;77.188;2023-04-06T01:05:37;65.57;;;27.10;;
26201;SDS011;13944;28.562;77.188;2023-04-06T01:08:06;67.88;;;27.08;;
26201;SDS011;13944;28.562;77.188;2023-04-06T01:10:33;76.93;;;30.25;;
26201;SDS011;13944;28.562;77.188;2023-04-06T01:12:59;70.20;;;30.15;;
26201;SDS011;13944;28.562;77.188;2023-04-06T01:15:26;71.50;;;30.17;;
26201;SDS011;13944;28.562;77.188;2023-04-06T01:17:53;81.22;;;31.02;;
26201;SDS011;13944;28.562;77.188;2023-04-06T01:20:19;77.27;;;31.87;;
26201;SDS011;13944;28.562;77.188;2023-04-06T01:22:46;73.07;;;32.08;;
26201;SDS011;13944;28.562;77.188;2023-04-06T01:25:13;83.00;;;33.05;;
26201;SDS011;13944;28.562;77.188;2023-04-06T01:27:39;79.50;;;32.85;;
26201;SDS011;13944;28.562;77.188;2023-04-06T01:30:06;70.85;;;32.38;;
26201;SDS011;13944;28.562;77.188;2023-04-06T01:32:33;81.97;;;33.30;;
26201;SDS011;13944;28.562;77.188;2023-04-06T01:34:59;80.27;;;34.37;;
26201;SDS011;13944;28.562;77.188;2023-04-06T01:37:26;80.28;;;33.00;;
26201;SDS011;13944;28.562;77.188;2023-04-06T01:39:52;77.93;;;35.33;;
26201;SDS011;13944;28.562;77.188;2023-04-06T01:42:19;78.75;;;33.80;;
26201;SDS011;13944;28.562;77.188;2023-04-06T01:44:46;79.88;;;34.33;;
26201;SDS011;13944;28.562;77.188;2023-04-06T01:47:12;77.60;;;35.15;;
26201;SDS011;13944;28.562;77.188;2023-04-06T01:49:39;76.00;;;33.85;;
26201;SDS011;13944;28.562;77.188;2023-04-06T01:52:05;75.05;;;34.13;;
26201;SDS011;13944;28.562;77.188;2023-04-06T01:54:32;77.30;;;33.22;;
26201;SDS011;13944;28.562;77.188;2023-04-06T01:56:58;80.70;;;34.47;;
26201;SDS011;13944;28.562;77.188;2023-04-06T01:59:28;78.60;;;35.35;;
26201;SDS011;13944;28.562;77.188;2023-04-06T02:01:55;76.85;;;34.65;;
26201;SDS011;13944;28.562;77.188;2023-04-06T02:04:21;69.25;;;32.42;;
26201;SDS011;13944;28.562;77.188;2023-04-06T02:06:48;79.65;;;35.90;;
26201;SDS011;13944;28.562;77.188;2023-04-06T02:09:14;79.43;;;35.00;;
26201;SDS011;13944;28.562;77.188;2023-04-06T02:11:41;85.35;;;38.15;;
26201;SDS011;13944;28.562;77.188;2023-04-06T02:14:07;85.47;;;38.20;;
26201;SDS011;13944;28.562;77.188;2023-04-06T02:16:34;75.35;;;37.60;;
26201;SDS011;13944;28.562;77.188;2023-04-06T02:19:01;78.95;;;38.08;;
26201;SDS011;13944;28.562;77.188;2023-04-06T02:21:27;81.93;;;38.53;;
26201;SDS011;13944;28.562;77.188;2023-04-06T02:23:54;86.57;;;38.10;;
26201;SDS011;13944;28.562;77.188;2023-04-06T02:26:21;85.95;;;37.42;;
26201;SDS011;13944;28.562;77.188;2023-04-06T02:28:47;83.35;;;36.17;;
26201;SDS011;13944;28.562;77.188;2023-04-06T02:31:14;82.05;;;35.03;;
26201;SDS011;13944;28.562;77.188;2023-04-06T02:33:41;71.28;;;33.17;;
26201;SDS011;13944;28.562;77.188;2023-04-06T02:36:07;73.03;;;32.65;;
26201;SDS011;13944;28.562;77.188;2023-04-06T02:38:34;69.22;;;34.83;;
26201;SDS011;13944;28.562;77.188;2023-04-06T02:41:01;74.32;;;34.42;;
26201;SDS011;13944;28.562;77.188;2023-04-06T02:43:27;67.72;;;32.53;;
26201;SDS011;13944;28.562;77.188;2023-04-06T02:45:54;76.15;;;31.52;;
26201;SDS011;13944;28.562;77.188;2023-04-06T02:48:20;77.40;;;29.52;;
26201;SDS011;13944;28.562;77.188;2023-04-06T02:50:47;66.35;;;28.27;;
26201;SDS011;13944;28.562;77.188;2023-04-06T02:53:13;64.47;;;29.05;;
26201;SDS011;13944;28.562;77.188;2023-04-06T02:55:40;61.08;;;25.42;;
26201;SDS011;13944;28.562;77.188;2023-04-06T02:58:06;61.30;;;25.63;;
26201;SDS011;13944;28.562;77.188;2023-04-06T03:00:33;62.85;;;26.17;;
26201;SDS011;13944;28.562;77.188;2023-04-06T03:02:59;56.22;;;24.98;;
26201;SDS011;13944;28.562;77.188;2023-04-06T03:05:26;52.75;;;24.35;;
26201;SDS011;13944;28.562;77.188;2023-04-06T03:07:53;62.53;;;25.25;;
26201;SDS011;13944;28.562;77.188;2023-04-06T03:10:19;56.63;;;23.35;;
26201;SDS011;13944;28.562;77.188;2023-04-06T03:12:46;39.53;;;17.05;;
26201;SDS011;13944;28.562;77.188;2023-04-06T03:15:12;45.47;;;22.52;;
26201;SDS011;13944;28.562;77.188;2023-04-06T03:17:39;49.67;;;22.55;;
26201;SDS011;13944;28.562;77.188;2023-04-06T03:20:06;36.55;;;16.65;;
26201;SDS011;13944;28.562;77.188;2023-04-06T03:22:33;42.33;;;20.05;;
26201;SDS011;13944;28.562;77.188;2023-04-06T03:24:59;30.35;;;13.07;;
26201;SDS011;13944;28.562;77.188;2023-04-06T03:27:26;53.63;;;24.08;;
26201;SDS011;13944;28.562;77.188;2023-04-06T03:29:52;54.22;;;24.63;;
26201;SDS011;13944;28.562;77.188;2023-04-06T03:32:19;50.67;;;22.80;;
26201;SDS011;13944;28.562;77.188;2023-04-06T03:34:48;57.83;;;25.70;;
26201;SDS011;13944;28.562;77.188;2023-04-06T03:37:15;51.95;;;23.27;;
26201;SDS011;13944;28.562;77.188;2023-04-06T03:39:42;47.55;;;22.75;;
26201;SDS011;13944;28.562;77.188;2023-04-06T03:42:08;52.47;;;23.30;;
26201;SDS011;13944;28.562;77.188;2023-04-06T03:44:35;47.72;;;20.33;;
26201;SDS011;13944;28.562;77.188;2023-04-06T03:47:01;48.22;;;19.40;;
26201;SDS011;13944;28.562;77.188;2023-04-06T03:49:28;40.75;;;17.48;;
26201;SDS011;13944;28.562;77.188;2023-04-06T03:51:55;44.30;;;20.30;;
26201;SDS011;13944;28.562;77.188;2023-04-06T03:54:22;43.38;;;20.40;;
26201;SDS011;13944;28.562;77.188;2023-04-06T03:56:49;41.70;;;17.55;;
26201;SDS011;13944;28.562;77.188;2023-04-06T03:59:15;38.22;;;16.85;;
26201;SDS011;13944;28.562;77.188;2023-04-06T04:01:42;39.35;;;16.85;;
26201;SDS011;13944;28.562;77.188;2023-04-06T04:04:08;36.53;;;15.75;;
26201;SDS011;13944;28.562;77.188;2023-04-06T04:06:35;33.42;;;15.05;;
26201;SDS011;13944;28.562;77.188;2023-04-06T04:09:02;21.40;;;9.88;;
26201;SDS011;13944;28.562;77.188;2023-04-06T04:11:29;25.23;;;12.20;;
26201;SDS011;13944;28.562;77.188;2023-04-06T04:13:56;11.88;;;5.47;;
26201;SDS011;13944;28.562;77.188;2023-04-06T04:16:22;25.88;;;12.05;;
26201;SDS011;13944;28.562;77.188;2023-04-06T04:18:49;30.58;;;10.55;;
26201;SDS011;13944;28.562;77.188;2023-04-06T04:21:15;26.30;;;9.43;;
26201;SDS011;13944;28.562;77.188;2023-04-06T04:23:42;24.90;;;9.20;;
26201;SDS011;13944;28.562;77.188;2023-04-06T04:26:08;22.38;;;8.93;;
26201;SDS011;13944;28.562;77.188;2023-04-06T04:28:35;19.02;;;6.65;;
26201;SDS011;13944;28.562;77.188;2023-04-06T04:31:01;14.63;;;5.80;;
26201;SDS011;13944;28.562;77.188;2023-04-06T04:33:28;28.77;;;8.75;;
26201;SDS011;13944;28.562;77.188;2023-04-06T04:35:55;23.05;;;8.02;;
26201;SDS011;13944;28.562;77.188;2023-04-06T04:38:21;19.83;;;8.35;;
26201;SDS011;13944;28.562;77.188;2023-04-06T04:40:48;25.90;;;10.65;;
26201;SDS011;13944;28.562;77.188;2023-04-06T04:43:14;25.63;;;11.55;;
26201;SDS011;13944;28.562;77.188;2023-04-06T04:45:41;28.33;;;12.35;;
26201;SDS011;13944;28.562;77.188;2023-04-06T04:48:07;27.50;;;13.57;;
26201;SDS011;13944;28.562;77.188;2023-04-06T04:50:34;27.60;;;12.07;;
26201;SDS011;13944;28.562;77.188;2023-04-06T04:53:01;30.20;;;13.90;;
26201;SDS011;13944;28.562;77.188;2023-04-06T04:55:30;28.20;;;11.88;;
26201;SDS011;13944;28.562;77.188;2023-04-06T04:57:56;27.88;;;11.75;;
26201;SDS011;13944;28.562;77.188;2023-04-06T05:00:23;28.30;;;10.68;;
26201;SDS011;13944;28.562;77.188;2023-04-06T05:02:50;30.75;;;10.63;;
26201;SDS011;13944;28.562;77.188;2023-04-06T05:05:16;21.40;;;10.07;;
26201;SDS011;13944;28.562;77.188;2023-04-06T05:07:43;27.77;;;10.73;;
26201;SDS011;13944;28.562;77.188;2023-04-06T05:10:09;26.83;;;10.82;;
26201;SDS011;13944;28.562;77.188;2023-04-06T05:12:36;23.77;;;10.52;;
26201;SDS011;13944;28.562;77.188;2023-04-06T05:15:03;29.42;;;10.77;;
26201;SDS011;13944;28.562;77.188;2023-04-06T05:17:30;27.38;;;10.90;;
26201;SDS011;13944;28.562;77.188;2023-04-06T05:19:56;26.65;;;11.55;;
26201;SDS011;13944;28.562;77.188;2023-04-06T05:22:23;21.95;;;11.10;;
26201;SDS011;13944;28.562;77.188;2023-04-06T05:24:49;26.63;;;10.63;;
26201;SDS011;13944;28.562;77.188;2023-04-06T05:27:16;24.98;;;10.85;;
26201;SDS011;13944;28.562;77.188;2023-04-06T05:29:42;27.27;;;10.25;;
26201;SDS011;13944;28.562;77.188;2023-04-06T05:32:09;24.38;;;10.05;;
26201;SDS011;13944;28.562;77.188;2023-04-06T05:34:36;23.52;;;10.23;;
26201;SDS011;13944;28.562;77.188;2023-04-06T05:37:03;28.35;;;10.20;;
26201;SDS011;13944;28.562;77.188;2023-04-06T05:39:29;25.77;;;10.38;;
26201;SDS011;13944;28.562;77.188;2023-04-06T05:41:56;22.27;;;9.63;;
26201;SDS011;13944;28.562;77.188;2023-04-06T05:44:22;27.13;;;10.67;;
26201;SDS011;13944;28.562;77.188;2023-04-06T05:46:49;36.40;;;11.60;;
26201;SDS011;13944;28.562;77.188;2023-04-06T05:49:15;31.58;;;10.95;;
26201;SDS011;13944;28.562;77.188;2023-04-06T05:51:42;26.65;;;10.27;;
26201;SDS011;13944;28.562;77.188;2023-04-06T05:54:08;27.30;;;10.73;;
26201;SDS011;13944;28.562;77.188;2023-04-06T05:56:35;29.05;;;10.80;;
26201;SDS011;13944;28.562;77.188;2023-04-06T05:59:01;29.60;;;11.73;;
26201;SDS011;13944;28.562;77.188;2023-04-06T06:01:28;26.10;;;12.20;;
26201;SDS011;13944;28.562;77.188;2023-04-06T06:03:55;23.20;;;10.60;;
26201;SDS011;13944;28.562;77.188;2023-04-06T06:06:21;25.83;;;11.70;;
26201;SDS011;13944;28.562;77.188;2023-04-06T06:08:48;29.33;;;11.97;;
26201;SDS011;13944;28.562;77.188;2023-04-06T06:11:14;27.63;;;12.10;;
26201;SDS011;13944;28.562;77.188;2023-04-06T06:13:41;28.25;;;12.60;;
26201;SDS011;13944;28.562;77.188;2023-04-06T06:16:08;27.08;;;11.98;;
26201;SDS011;13944;28.562;77.188;2023-04-06T06:18:34;26.13;;;11.63;;
26201;SDS011;13944;28.562;77.188;2023-04-06T06:21:02;27.20;;;11.77;;
26201;SDS011;13944;28.562;77.188;2023-04-06T06:23:29;30.90;;;13.50;;
26201;SDS011;13944;28.562;77.188;2023-04-06T06:25:55;31.23;;;13.30;;
26201;SDS011;13944;28.562;77.188;2023-04-06T06:28:23;31.85;;;13.63;;
26201;SDS011;13944;28.562;77.188;2023-04-06T06:30:50;34.23;;;14.50;;
26201;SDS011;13944;28.562;77.188;2023-04-06T06:33:18;34.67;;;14.93;;
26201;SDS011;13944;28.562;77.188;2023-04-06T06:35:45;34.13;;;14.98;;
26201;SDS011;13944;28.562;77.188;2023-04-06T06:38:11;26.90;;;13.93;;
26201;SDS011;13944;28.562;77.188;2023-04-06T06:40:40;31.00;;;14.00;;
26201;SDS011;13944;28.562;77.188;2023-04-06T06:43:07;30.20;;;14.38;;
26201;SDS011;13944;28.562;77.188;2023-04-06T06:45:34;26.08;;;15.00;;
26201;SDS011;13944;28.562;77.188;2023-04-06T06:48:00;30.27;;;15.02;;
26201;SDS011;13944;28.562;77.188;2023-04-06T06:50:27;30.85;;;14.65;;
26201;SDS011;13944;28.562;77.188;2023-04-06T06:52:53;31.48;;;13.63;;
26201;SDS011;13944;28.562;77.188;2023-04-06T06:55:20;30.20;;;13.45;;
26201;SDS011;13944;28.562;77.188;2023-04-06T06:57:47;29.42;;;13.60;;
26201;SDS011;13944;28.562;77.188;2023-04-06T07:00:13;26.80;;;13.20;;
26201;SDS011;13944;28.562;77.188;2023-04-06T07:02:40;28.30;;;13.15;;
26201;SDS011;13944;28.562;77.188;2023-04-06T07:05:06;27.10;;;12.23;;
26201;SDS011;13944;28.562;77.188;2023-04-06T07:07:33;26.90;;;12.52;;
26201;SDS011;13944;28.562;77.188;2023-04-06T07:10:00;25.38;;;11.85;;
26201;SDS011;13944;28.562;77.188;2023-04-06T07:12:26;26.55;;;12.43;;
26201;SDS011;13944;28.562;77.188;2023-04-06T07:14:53;27.65;;;12.43;;
26201;SDS011;13944;28.562;77.188;2023-04-06T07:17:19;25.50;;;11.45;;
26201;SDS011;13944;28.562;77.188;2023-04-06T07:19:46;27.95;;;11.10;;
26201;SDS011;13944;28.562;77.188;2023-04-06T07:22:12;24.00;;;10.43;;
26201;SDS011;13944;28.562;77.188;2023-04-06T07:24:39;25.08;;;10.55;;
26201;SDS011;13944;28.562;77.188;2023-04-06T07:27:06;23.40;;;9.70;;
26201;SDS011;13944;28.562;77.188;2023-04-06T07:29:32;17.58;;;6.25;;
26201;SDS011;13944;28.562;77.188;2023-04-06T07:31:59;18.25;;;6.40;;
26201;SDS011;13944;28.562;77.188;2023-04-06T07:34:26;20.13;;;7.00;;
26201;SDS011;13944;28.562;77.188;2023-04-06T07:36:52;13.75;;;5.90;;
26201;SDS011;13944;28.562;77.188;2023-04-06T07:39:19;18.10;;;6.00;;
26201;SDS011;13944;28.562;77.188;2023-04-06T07:41:46;13.98;;;5.80;;
26201;SDS011;13944;28.562;77.188;2023-04-06T07:44:12;14.60;;;5.72;;
26201;SDS011;13944;28.562;77.188;2023-04-06T07:46:39;17.38;;;6.35;;
26201;SDS011;13944;28.562;77.188;2023-04-06T07:49:05;18.85;;;6.15;;
26201;SDS011;13944;28.562;77.188;2023-04-06T07:51:32;25.10;;;6.57;;
26201;SDS011;13944;28.562;77.188;2023-04-06T07:53:58;17.75;;;5.78;;
26201;SDS011;13944;28.562;77.188;2023-04-06T07:56:25;16.95;;;5.55;;
26201;SDS011;13944;28.562;77.188;2023-04-06T07:58:52;15.48;;;5.47;;
26201;SDS011;13944;28.562;77.188;2023-04-06T08:01:21;20.42;;;5.30;;
26201;SDS011;13944;28.562;77.188;2023-04-06T08:03:48;18.42;;;5.28;;
26201;SDS011;13944;28.562;77.188;2023-04-06T08:06:15;14.15;;;5.13;;
26201;SDS011;13944;28.562;77.188;2023-04-06T08:08:42;14.60;;;5.05;;
26201;SDS011;13944;28.562;77.188;2023-04-06T08:11:09;17.05;;;4.95;;
26201;SDS011;13944;28.562;77.188;2023-04-06T08:13:35;15.18;;;5.05;;
26201;SDS011;13944;28.562;77.188;2023-04-06T08:16:02;14.00;;;5.35;;
26201;SDS011;13944;28.562;77.188;2023-04-06T08:18:28;14.00;;;5.10;;
26201;SDS011;13944;28.562;77.188;2023-04-06T08:20:55;22.50;;;5.97;;
26201;SDS011;13944;28.562;77.188;2023-04-06T08:23:22;22.63;;;5.30;;
26201;SDS011;13944;28.562;77.188;2023-04-06T08:25:49;18.35;;;5.20;;
26201;SDS011;13944;28.562;77.188;2023-04-06T08:28:15;14.07;;;4.70;;
26201;SDS011;13944;28.562;77.188;2023-04-06T08:30:42;16.38;;;5.43;;
26201;SDS011;13944;28.562;77.188;2023-04-06T08:33:09;14.35;;;4.63;;
26201;SDS011;13944;28.562;77.188;2023-04-06T08:35:35;14.52;;;4.72;;
26201;SDS011;13944;28.562;77.188;2023-04-06T08:38:02;14.77;;;4.55;;
26201;SDS011;13944;28.562;77.188;2023-04-06T08:40:28;11.75;;;4.60;;
26201;SDS011;13944;28.562;77.188;2023-04-06T08:42:55;16.30;;;4.50;;
26201;SDS011;13944;28.562;77.188;2023-04-06T08:45:22;17.08;;;5.40;;
26201;SDS011;13944;28.562;77.188;2023-04-06T08:47:52;16.13;;;5.82;;
26201;SDS011;13944;28.562;77.188;2023-04-06T08:50:21;17.08;;;5.43;;
26201;SDS011;13944;28.562;77.188;2023-04-06T08:52:48;14.25;;;5.18;;
26201;SDS011;13944;28.562;77.188;2023-04-06T08:55:15;15.85;;;4.80;;
26201;SDS011;13944;28.562;77.188;2023-04-06T08:57:42;17.17;;;5.70;;
26201;SDS011;13944;28.562;77.188;2023-04-06T09:00:09;16.08;;;5.10;;
26201;SDS011;13944;28.562;77.188;2023-04-06T09:02:40;17.00;;;5.47;;
26201;SDS011;13944;28.562;77.188;2023-04-06T09:05:08;17.40;;;8.05;;
26201;SDS011;13944;28.562;77.188;2023-04-06T09:07:36;15.73;;;5.95;;
26201;SDS011;13944;28.562;77.188;2023-04-06T09:10:03;17.30;;;4.72;;
26201;SDS011;13944;28.562;77.188;2023-04-06T09:12:30;17.10;;;5.72;;
26201;SDS011;13944;28.562;77.188;2023-04-06T09:14:57;16.30;;;5.47;;
26201;SDS011;13944;28.562;77.188;2023-04-06T09:17:28;16.90;;;5.38;;
26201;SDS011;13944;28.562;77.188;2023-04-06T09:20:01;14.98;;;5.55;;
26201;SDS011;13944;28.562;77.188;2023-04-06T09:22:35;17.52;;;6.13;;
26201;SDS011;13944;28.562;77.188;2023-04-06T09:25:02;16.60;;;5.25;;
26201;SDS011;13944;28.562;77.188;2023-04-06T09:27:32;17.77;;;5.13;;
26201;SDS011;13944;28.562;77.188;2023-04-06T09:30:06;16.48;;;4.82;;
26201;SDS011;13944;28.562;77.188;2023-04-06T09:32:43;20.02;;;5.10;;
26201;SDS011;13944;28.562;77.188;2023-04-06T09:35:11;20.35;;;5.35;;
26201;SDS011;13944;28.562;77.188;2023-04-06T09:37:37;17.95;;;4.97;;
26201;SDS011;13944;28.562;77.188;2023-04-06T09:40:07;15.57;;;5.20;;
26201;SDS011;13944;28.562;77.188;2023-04-06T09:42:34;15.73;;;5.28;;
26201;SDS011;13944;28.562;77.188;2023-04-06T09:45:01;13.68;;;4.57;;
26201;SDS011;13944;28.562;77.188;2023-04-06T09:47:28;17.52;;;4.75;;
26201;SDS011;13944;28.562;77.188;2023-04-06T09:49:56;11.40;;;4.28;;
26201;SDS011;13944;28.562;77.188;2023-04-06T09:52:26;20.35;;;4.97;;
26201;SDS011;13944;28.562;77.188;2023-04-06T09:54:54;17.90;;;5.03;;
26201;SDS011;13944;28.562;77.188;2023-04-06T09:57:25;14.75;;;4.60;;
26201;SDS011;13944;28.562;77.188;2023-04-06T10:00:10;19.30;;;4.40;;
26201;SDS011;13944;28.562;77.188;2023-04-06T10:02:53;13.63;;;4.50;;
26201;SDS011;13944;28.562;77.188;2023-04-06T10:08:07;17.10;;;4.47;;
26201;SDS011;13944;28.562;77.188;2023-04-06T10:10:35;14.15;;;4.53;;
26201;SDS011;13944;28.562;77.188;2023-04-06T10:13:02;13.98;;;3.95;;
26201;SDS011;13944;28.562;77.188;2023-04-06T10:15:28;16.75;;;4.00;;
26201;SDS011;13944;28.562;77.188;2023-04-06T10:17:58;16.52;;;4.78;;
26201;SDS011;13944;28.562;77.188;2023-04-06T10:20:27;17.95;;;4.25;;
26201;SDS011;13944;28.562;77.188;2023-04-06T10:25:51;18.27;;;3.78;;
26201;SDS011;13944;28.562;77.188;2023-04-06T10:28:19;15.18;;;4.40;;
26201;SDS011;13944;28.562;77.188;2023-04-06T10:30:46;13.00;;;4.22;;
26201;SDS011;13944;28.562;77.188;2023-04-06T10:33:13;16.92;;;4.45;;
26201;SDS011;13944;28.562;77.188;2023-04-06T10:35:40;25.48;;;5.63;;
26201;SDS011;13944;28.562;77.188;2023-04-06T10:38:07;20.98;;;5.20;;
26201;SDS011;13944;28.562;77.188;2023-04-06T10:40:37;22.40;;;5.88;;
26201;SDS011;13944;28.562;77.188;2023-04-06T10:43:08;19.45;;;5.00;;
26201;SDS011;13944;28.562;77.188;2023-04-06T10:45:35;21.55;;;6.30;;
26201;SDS011;13944;28.562;77.188;2023-04-06T10:50:43;22.98;;;6.18;;
26201;SDS011;13944;28.562;77.188;2023-04-06T10:53:10;18.85;;;6.38;;
26201;SDS011;13944;28.562;77.188;2023-04-06T10:55:38;21.75;;;5.30;;
26201;SDS011;13944;28.562;77.188;2023-04-06T10:58:07;15.15;;;4.95;;
26201;SDS011;13944;28.562;77.188;2023-04-06T11:00:33;20.33;;;5.03;;
26201;SDS011;13944;28.562;77.188;2023-04-06T11:03:00;16.13;;;4.32;;
26201;SDS011;13944;28.562;77.188;2023-04-06T11:05:27;13.52;;;4.32;;
26201;SDS011;13944;28.562;77.188;2023-04-06T11:07:54;15.90;;;4.40;;
26201;SDS011;13944;28.562;77.188;2023-04-06T11:10:23;17.13;;;4.55;;
26201;SDS011;13944;28.562;77.188;2023-04-06T11:12:53;19.65;;;4.85;;
26201;SDS011;13944;28.562;77.188;2023-04-06T11:15:20;17.73;;;4.53;;
26201;SDS011;13944;28.562;77.188;2023-04-06T11:17:47;16.77;;;4.78;;
26201;SDS011;13944;28.562;77.188;2023-04-06T11:20:14;14.60;;;4.55;;
26201;SDS011;13944;28.562;77.188;2023-04-06T11:22:51;19.58;;;4.85;;
26201;SDS011;13944;28.562;77.188;2023-04-06T11:25:20;20.73;;;5.13;;
26201;SDS011;13944;28.562;77.188;2023-04-06T11:27:47;21.42;;;5.03;;
26201;SDS011;13944;28.562;77.188;2023-04-06T11:30:14;18.55;;;5.53;;
26201;SDS011;13944;28.562;77.188;2023-04-06T11:32:44;18.63;;;4.32;;
26201;SDS011;13944;28.562;77.188;2023-04-06T11:35:11;15.13;;;4.40;;
26201;SDS011;13944;28.562;77.188;2023-04-06T11:37:38;17.65;;;4.10;;
26201;SDS011;13944;28.562;77.188;2023-04-06T11:40:07;20.52;;;4.75;;
26201;SDS011;13944;28.562;77.188;2023-04-06T11:42:34;17.85;;;4.30;;
26201;SDS011;13944;28.562;77.188;2023-04-06T11:45:01;16.92;;;4.40;;
26201;SDS011;13944;28.562;77.188;2023-04-06T11:47:28;17.40;;;4.20;;
26201;SDS011;13944;28.562;77.188;2023-04-06T11:49:55;14.27;;;3.78;;
26201;SDS011;13944;28.562;77.188;2023-04-06T11:52:25;19.13;;;4.40;;
26201;SDS011;13944;28.562;77.188;2023-04-06T11:54:52;14.35;;;4.57;;
26201;SDS011;13944;28.562;77.188;2023-04-06T11:57:20;18.52;;;4.20;;
26201;SDS011;13944;28.562;77.188;2023-04-06T11:59:51;20.25;;;4.95;;
26201;SDS011;13944;28.562;77.188;2023-04-06T12:02:18;19.77;;;5.03;;
26201;SDS011;13944;28.562;77.188;2023-04-06T12:04:44;18.48;;;4.90;;
26201;SDS011;13944;28.562;77.188;2023-04-06T12:07:11;19.90;;;5.32;;
26201;SDS011;13944;28.562;77.188;2023-04-06T12:09:37;26.20;;;5.63;;
26201;SDS011;13944;28.562;77.188;2023-04-06T12:12:04;25.38;;;5.25;;
26201;SDS011;13944;28.562;77.188;2023-04-06T12:14:30;26.58;;;5.00;;
26201;SDS011;13944;28.562;77.188;2023-04-06T12:16:57;27.92;;;5.82;;
26201;SDS011;13944;28.562;77.188;2023-04-06T12:19:24;22.38;;;5.78;;
26201;SDS011;13944;28.562;77.188;2023-04-06T12:21:51;24.73;;;6.18;;
26201;SDS011;13944;28.562;77.188;2023-04-06T12:24:18;29.25;;;6.88;;
26201;SDS011;13944;28.562;77.188;2023-04-06T12:26:45;23.35;;;6.80;;
26201;SDS011;13944;28.562;77.188;2023-04-06T12:29:12;21.20;;;6.10;;
26201;SDS011;13944;28.562;77.188;2023-04-06T12:31:38;26.23;;;6.82;;
26201;SDS011;13944;28.562;77.188;2023-04-06T12:34:08;19.48;;;5.82;;
26201;SDS011;13944;28.562;77.188;2023-04-06T12:36:34;19.85;;;5.93;;
26201;SDS011;13944;28.562;77.188;2023-04-06T12:39:03;18.75;;;6.22;;
26201;SDS011;13944;28.562;77.188;2023-04-06T12:41:29;22.30;;;6.05;;
26201;SDS011;13944;28.562;77.188;2023-04-06T12:43:56;20.48;;;6.30;;
26201;SDS011;13944;28.562;77.188;2023-04-06T12:46:24;18.23;;;5.80;;
26201;SDS011;13944;28.562;77.188;2023-04-06T12:48:51;20.27;;;6.45;;
26201;SDS011;13944;28.562;77.188;2023-04-06T12:51:21;23.25;;;6.47;;
26201;SDS011;13944;28.562;77.188;2023-04-06T12:53:48;20.63;;;6.18;;
26201;SDS011;13944;28.562;77.188;2023-04-06T12:56:16;24.85;;;7.47;;
26201;SDS011;13944;28.562;77.188;2023-04-06T12:58:43;22.23;;;7.63;;
26201;SDS011;13944;28.562;77.188;2023-04-06T13:01:10;24.75;;;7.43;;
26201;SDS011;13944;28.562;77.188;2023-04-06T13:03:38;19.70;;;7.10;;
26201;SDS011;13944;28.562;77.188;2023-04-06T13:06:05;23.52;;;8.00;;
26201;SDS011;13944;28.562;77.188;2023-04-06T13:08:31;32.78;;;7.93;;
26201;SDS011;13944;28.562;77.188;2023-04-06T13:10:58;25.98;;;7.00;;
26201;SDS011;13944;28.562;77.188;2023-04-06T13:13:25;27.25;;;8.02;;
26201;SDS011;13944;28.562;77.188;2023-04-06T13:15:52;25.70;;;7.50;;
26201;SDS011;13944;28.562;77.188;2023-04-06T13:18:19;26.27;;;7.97;;
26201;SDS011;13944;28.562;77.188;2023-04-06T13:20:49;26.30;;;8.13;;
26201;SDS011;13944;28.562;77.188;2023-04-06T13:23:15;32.13;;;9.35;;
26201;SDS011;13944;28.562;77.188;2023-04-06T13:25:42;29.42;;;9.32;;
26201;SDS011;13944;28.562;77.188;2023-04-06T13:28:09;24.10;;;9.52;;
26201;SDS011;13944;28.562;77.188;2023-04-06T13:30:35;28.80;;;9.60;;
26201;SDS011;13944;28.562;77.188;2023-04-06T13:33:02;29.75;;;9.55;;
26201;SDS011;13944;28.562;77.188;2023-04-06T13:35:29;39.17;;;11.10;;
26201;SDS011;13944;28.562;77.188;2023-04-06T13:37:56;36.28;;;13.50;;
26201;SDS011;13944;28.562;77.188;2023-04-06T13:40:23;47.97;;;15.70;;
26201;SDS011;13944;28.562;77.188;2023-04-06T13:42:49;39.95;;;15.38;;
26201;SDS011;13944;28.562;77.188;2023-04-06T13:45:19;47.90;;;19.20;;
26201;SDS011;13944;28.562;77.188;2023-04-06T13:47:46;50.47;;;19.77;;
26201;SDS011;13944;28.562;77.188;2023-04-06T13:50:12;58.38;;;21.65;;
26201;SDS011;13944;28.562;77.188;2023-04-06T13:52:39;59.38;;;23.00;;
26201;SDS011;13944;28.562;77.188;2023-04-06T13:55:05;50.88;;;21.80;;
26201;SDS011;13944;28.562;77.188;2023-04-06T13:57:32;63.67;;;22.17;;
26201;SDS011;13944;28.562;77.188;2023-04-06T13:59:58;66.93;;;23.27;;
26201;SDS011;13944;28.562;77.188;2023-04-06T14:02:25;56.03;;;21.50;;
26201;SDS011;13944;28.562;77.188;2023-04-06T14:04:52;56.92;;;22.02;;
26201;SDS011;13944;28.562;77.188;2023-04-06T14:07:20;63.83;;;21.38;;
26201;SDS011;13944;28.562;77.188;2023-04-06T14:09:47;70.65;;;21.05;;
26201;SDS011;13944;28.562;77.188;2023-04-06T14:12:13;73.85;;;22.63;;
26201;SDS011;13944;28.562;77.188;2023-04-06T14:14:40;73.35;;;24.83;;
26201;SDS011;13944;28.562;77.188;2023-04-06T14:17:06;66.13;;;25.00;;
26201;SDS011;13944;28.562;77.188;2023-04-06T14:19:33;67.70;;;27.05;;
26201;SDS011;13944;28.562;77.188;2023-04-06T14:22:01;80.80;;;27.63;;